sensor_id;sensor_type;location;lat;lon;timestamp;P1;durP1;ratioP1;P2;durP2;ratioP2
27794;SDS011;15176;50.844;4.412;2022-08-19T00:00:28;15.43;;;10.27;;
27794;SDS011;15176;50.844;4.412;2022-08-19T00:02:56;23.15;;;15.40;;
27794;SDS011;15176;50.844;4.412;2022-08-19T00:05:21;22.25;;;14.25;;
27794;SDS011;15176;50.844;4.412;2022-08-19T00:07:47;23.15;;;15.10;;
27794;SDS011;15176;50.844;4.412;2022-08-19T00:10:14;20.67;;;13.80;;
27794;SDS011;15176;50.844;4.412;2022-08-19T00:12:40;25.48;;;16.95;;
27794;SDS011;15176;50.844;4.412;2022-08-19T00:15:08;25.33;;;17.17;;
27794;SDS011;15176;50.844;4.412;2022-08-19T00:17:43;19.23;;;13.73;;
27794;SDS011;15176;50.844;4.412;2022-08-19T00:20:11;27.30;;;18.02;;
27794;SDS011;15176;50.844;4.412;2022-08-19T00:22:41;27.08;;;18.73;;
27794;SDS011;15176;50.844;4.412;2022-08-19T00:25:09;39.45;;;24.10;;
27794;SDS011;15176;50.844;4.412;2022-08-19T00:27:35;40.03;;;24.98;;
27794;SDS011;15176;50.844;4.412;2022-08-19T00:30:01;32.03;;;20.40;;
27794;SDS011;15176;50.844;4.412;2022-08-19T00:32:29;47.00;;;27.05;;
27794;SDS011;15176;50.844;4.412;2022-08-19T00:34:54;37.08;;;23.38;;
27794;SDS011;15176;50.844;4.412;2022-08-19T00:37:21;26.40;;;17.20;;
27794;SDS011;15176;50.844;4.412;2022-08-19T00:39:48;34.92;;;19.83;;
27794;SDS011;15176;50.844;4.412;2022-08-19T00:42:14;44.40;;;28.42;;
27794;SDS011;15176;50.844;4.412;2022-08-19T00:44:40;51.25;;;30.58;;
27794;SDS011;15176;50.844;4.412;2022-08-19T00:47:08;50.45;;;31.25;;
27794;SDS011;15176;50.844;4.412;2022-08-19T00:49:35;51.50;;;30.23;;
27794;SDS011;15176;50.844;4.412;2022-08-19T00:52:09;37.33;;;22.83;;
27794;SDS011;15176;50.844;4.412;2022-08-19T00:54:39;53.30;;;31.30;;
27794;SDS011;15176;50.844;4.412;2022-08-19T00:57:08;52.03;;;32.30;;
27794;SDS011;15176;50.844;4.412;2022-08-19T00:59:40;40.45;;;25.48;;
27794;SDS011;15176;50.844;4.412;2022-08-19T01:02:07;50.03;;;32.05;;
27794;SDS011;15176;50.844;4.412;2022-08-19T01:04:33;53.50;;;32.00;;
27794;SDS011;15176;50.844;4.412;2022-08-19T01:06:59;53.92;;;33.47;;
27794;SDS011;15176;50.844;4.412;2022-08-19T01:09:26;54.40;;;31.92;;
27794;SDS011;15176;50.844;4.412;2022-08-19T01:11:52;48.60;;;28.63;;
27794;SDS011;15176;50.844;4.412;2022-08-19T01:14:18;46.55;;;28.73;;
27794;SDS011;15176;50.844;4.412;2022-08-19T01:16:44;44.67;;;27.15;;
27794;SDS011;15176;50.844;4.412;2022-08-19T01:24:45;42.70;;;26.85;;
27794;SDS011;15176;50.844;4.412;2022-08-19T01:27:10;32.92;;;20.55;;
27794;SDS011;15176;50.844;4.412;2022-08-19T01:29:37;42.10;;;25.50;;
27794;SDS011;15176;50.844;4.412;2022-08-19T01:32:07;23.90;;;15.93;;
27794;SDS011;15176;50.844;4.412;2022-08-19T01:34:34;31.42;;;19.17;;
27794;SDS011;15176;50.844;4.412;2022-08-19T01:37:00;26.58;;;17.60;;
27794;SDS011;15176;50.844;4.412;2022-08-19T01:39:30;34.40;;;22.40;;
27794;SDS011;15176;50.844;4.412;2022-08-19T01:41:56;35.08;;;22.50;;
27794;SDS011;15176;50.844;4.412;2022-08-19T01:44:21;28.10;;;18.45;;
27794;SDS011;15176;50.844;4.412;2022-08-19T01:46:49;21.55;;;14.77;;
27794;SDS011;15176;50.844;4.412;2022-08-19T01:49:19;28.98;;;18.70;;
27794;SDS011;15176;50.844;4.412;2022-08-19T01:51:47;32.53;;;21.08;;
27794;SDS011;15176;50.844;4.412;2022-08-19T01:54:13;27.63;;;18.45;;
27794;SDS011;15176;50.844;4.412;2022-08-19T01:56:40;26.83;;;14.73;;
27794;SDS011;15176;50.844;4.412;2022-08-19T01:59:08;21.60;;;14.73;;
27794;SDS011;15176;50.844;4.412;2022-08-19T02:01:38;26.42;;;16.40;;
27794;SDS011;15176;50.844;4.412;2022-08-19T02:04:04;26.85;;;16.77;;
27794;SDS011;15176;50.844;4.412;2022-08-19T02:06:31;30.05;;;17.55;;
27794;SDS011;15176;50.844;4.412;2022-08-19T02:08:57;28.17;;;18.23;;
27794;SDS011;15176;50.844;4.412;2022-08-19T02:11:25;25.83;;;17.38;;
27794;SDS011;15176;50.844;4.412;2022-08-19T02:13:56;30.63;;;19.60;;
27794;SDS011;15176;50.844;4.412;2022-08-19T02:16:23;28.95;;;18.88;;
27794;SDS011;15176;50.844;4.412;2022-08-19T02:18:52;30.05;;;18.15;;
27794;SDS011;15176;50.844;4.412;2022-08-19T02:21:18;24.33;;;16.33;;
27794;SDS011;15176;50.844;4.412;2022-08-19T02:23:45;19.60;;;12.73;;
27794;SDS011;15176;50.844;4.412;2022-08-19T02:26:11;19.08;;;13.68;;
27794;SDS011;15176;50.844;4.412;2022-08-19T02:28:37;22.52;;;13.77;;
27794;SDS011;15176;50.844;4.412;2022-08-19T02:31:07;23.35;;;14.85;;
27794;SDS011;15176;50.844;4.412;2022-08-19T02:33:37;23.00;;;15.57;;
27794;SDS011;15176;50.844;4.412;2022-08-19T02:36:04;26.05;;;17.25;;
27794;SDS011;15176;50.844;4.412;2022-08-19T02:38:31;31.20;;;18.65;;
27794;SDS011;15176;50.844;4.412;2022-08-19T02:40:58;29.88;;;20.23;;
27794;SDS011;15176;50.844;4.412;2022-08-19T02:43:29;28.52;;;18.95;;
27794;SDS011;15176;50.844;4.412;2022-08-19T02:45:57;28.77;;;18.00;;
27794;SDS011;15176;50.844;4.412;2022-08-19T02:48:23;24.77;;;16.65;;
27794;SDS011;15176;50.844;4.412;2022-08-19T02:50:51;26.42;;;15.80;;
27794;SDS011;15176;50.844;4.412;2022-08-19T02:53:20;25.95;;;16.50;;
27794;SDS011;15176;50.844;4.412;2022-08-19T02:55:47;27.10;;;16.67;;
27794;SDS011;15176;50.844;4.412;2022-08-19T02:58:14;27.27;;;17.20;;
27794;SDS011;15176;50.844;4.412;2022-08-19T03:00:44;26.10;;;17.13;;
27794;SDS011;15176;50.844;4.412;2022-08-19T03:03:13;24.85;;;15.13;;
27794;SDS011;15176;50.844;4.412;2022-08-19T03:05:39;25.98;;;16.10;;
27794;SDS011;15176;50.844;4.412;2022-08-19T03:08:05;24.80;;;15.52;;
27794;SDS011;15176;50.844;4.412;2022-08-19T03:10:32;23.92;;;13.48;;
27794;SDS011;15176;50.844;4.412;2022-08-19T03:12:58;22.88;;;14.07;;
27794;SDS011;15176;50.844;4.412;2022-08-19T03:15:23;21.70;;;13.25;;
27794;SDS011;15176;50.844;4.412;2022-08-19T03:17:49;24.85;;;14.13;;
27794;SDS011;15176;50.844;4.412;2022-08-19T03:20:14;22.55;;;13.40;;
27794;SDS011;15176;50.844;4.412;2022-08-19T03:22:40;22.83;;;14.48;;
27794;SDS011;15176;50.844;4.412;2022-08-19T03:25:06;26.83;;;16.67;;
27794;SDS011;15176;50.844;4.412;2022-08-19T03:27:32;28.23;;;15.45;;
27794;SDS011;15176;50.844;4.412;2022-08-19T03:29:57;28.55;;;16.67;;
27794;SDS011;15176;50.844;4.412;2022-08-19T03:32:25;28.08;;;15.43;;
27794;SDS011;15176;50.844;4.412;2022-08-19T03:34:51;24.40;;;15.63;;
27794;SDS011;15176;50.844;4.412;2022-08-19T03:37:17;26.52;;;15.52;;
27794;SDS011;15176;50.844;4.412;2022-08-19T03:39:43;24.30;;;14.98;;
27794;SDS011;15176;50.844;4.412;2022-08-19T03:42:09;22.40;;;12.38;;
27794;SDS011;15176;50.844;4.412;2022-08-19T03:44:36;24.67;;;13.75;;
27794;SDS011;15176;50.844;4.412;2022-08-19T03:47:03;22.45;;;13.45;;
27794;SDS011;15176;50.844;4.412;2022-08-19T03:49:30;23.58;;;13.70;;
27794;SDS011;15176;50.844;4.412;2022-08-19T03:51:58;26.58;;;14.73;;
27794;SDS011;15176;50.844;4.412;2022-08-19T03:54:27;25.52;;;14.90;;
27794;SDS011;15176;50.844;4.412;2022-08-19T03:56:54;26.52;;;15.52;;
27794;SDS011;15176;50.844;4.412;2022-08-19T03:59:23;27.25;;;15.77;;
27794;SDS011;15176;50.844;4.412;2022-08-19T04:01:51;29.85;;;16.35;;
27794;SDS011;15176;50.844;4.412;2022-08-19T04:04:18;24.98;;;15.20;;
27794;SDS011;15176;50.844;4.412;2022-08-19T04:06:44;27.10;;;15.68;;
27794;SDS011;15176;50.844;4.412;2022-08-19T04:09:12;28.40;;;16.08;;
27794;SDS011;15176;50.844;4.412;2022-08-19T04:11:43;25.95;;;15.48;;
27794;SDS011;15176;50.844;4.412;2022-08-19T04:14:12;27.50;;;16.05;;
27794;SDS011;15176;50.844;4.412;2022-08-19T04:16:43;26.67;;;14.20;;
27794;SDS011;15176;50.844;4.412;2022-08-19T04:19:11;29.58;;;16.20;;
27794;SDS011;15176;50.844;4.412;2022-08-19T04:21:39;24.13;;;14.05;;
27794;SDS011;15176;50.844;4.412;2022-08-19T04:24:05;23.45;;;13.45;;
27794;SDS011;15176;50.844;4.412;2022-08-19T04:26:33;22.20;;;12.95;;
27794;SDS011;15176;50.844;4.412;2022-08-19T04:29:00;20.35;;;11.32;;
27794;SDS011;15176;50.844;4.412;2022-08-19T04:31:29;25.52;;;13.70;;
27794;SDS011;15176;50.844;4.412;2022-08-19T04:33:57;21.48;;;12.13;;
27794;SDS011;15176;50.844;4.412;2022-08-19T04:36:25;25.75;;;13.52;;
27794;SDS011;15176;50.844;4.412;2022-08-19T04:38:54;26.70;;;13.35;;
27794;SDS011;15176;50.844;4.412;2022-08-19T04:41:21;28.88;;;13.52;;
27794;SDS011;15176;50.844;4.412;2022-08-19T04:44:06;22.30;;;13.18;;
27794;SDS011;15176;50.844;4.412;2022-08-19T04:46:32;20.33;;;11.73;;
27794;SDS011;15176;50.844;4.412;2022-08-19T04:48:59;22.98;;;12.57;;
27794;SDS011;15176;50.844;4.412;2022-08-19T04:51:25;23.42;;;14.35;;
27794;SDS011;15176;50.844;4.412;2022-08-19T04:53:51;21.30;;;12.68;;
27794;SDS011;15176;50.844;4.412;2022-08-19T04:56:17;25.17;;;11.95;;
27794;SDS011;15176;50.844;4.412;2022-08-19T04:58:45;22.63;;;12.45;;
27794;SDS011;15176;50.844;4.412;2022-08-19T05:01:12;19.05;;;11.35;;
27794;SDS011;15176;50.844;4.412;2022-08-19T05:03:38;22.92;;;12.57;;
27794;SDS011;15176;50.844;4.412;2022-08-19T05:06:08;22.02;;;11.73;;
27794;SDS011;15176;50.844;4.412;2022-08-19T05:08:39;21.08;;;11.68;;
27794;SDS011;15176;50.844;4.412;2022-08-19T05:11:13;24.25;;;12.00;;
27794;SDS011;15176;50.844;4.412;2022-08-19T05:13:39;19.55;;;9.75;;
27794;SDS011;15176;50.844;4.412;2022-08-19T05:16:06;20.38;;;10.02;;
27794;SDS011;15176;50.844;4.412;2022-08-19T05:18:31;14.13;;;7.95;;
27794;SDS011;15176;50.844;4.412;2022-08-19T05:21:17;19.15;;;9.07;;
27794;SDS011;15176;50.844;4.412;2022-08-19T05:24:03;18.35;;;9.73;;
27794;SDS011;15176;50.844;4.412;2022-08-19T05:26:34;20.48;;;10.05;;
27794;SDS011;15176;50.844;4.412;2022-08-19T05:29:04;15.05;;;8.52;;
27794;SDS011;15176;50.844;4.412;2022-08-19T05:31:30;18.85;;;10.90;;
27794;SDS011;15176;50.844;4.412;2022-08-19T05:33:56;19.48;;;10.25;;
27794;SDS011;15176;50.844;4.412;2022-08-19T05:36:24;15.18;;;9.40;;
27794;SDS011;15176;50.844;4.412;2022-08-19T05:38:51;19.08;;;9.40;;
27794;SDS011;15176;50.844;4.412;2022-08-19T05:41:18;24.40;;;13.23;;
27794;SDS011;15176;50.844;4.412;2022-08-19T05:43:45;22.50;;;12.55;;
27794;SDS011;15176;50.844;4.412;2022-08-19T05:46:18;18.20;;;9.88;;
27794;SDS011;15176;50.844;4.412;2022-08-19T05:48:44;21.38;;;11.60;;
27794;SDS011;15176;50.844;4.412;2022-08-19T05:51:10;20.10;;;11.60;;
27794;SDS011;15176;50.844;4.412;2022-08-19T05:53:36;19.77;;;10.20;;
27794;SDS011;15176;50.844;4.412;2022-08-19T05:56:09;20.33;;;11.60;;
27794;SDS011;15176;50.844;4.412;2022-08-19T05:58:37;17.65;;;10.57;;
27794;SDS011;15176;50.844;4.412;2022-08-19T06:01:04;17.80;;;9.30;;
27794;SDS011;15176;50.844;4.412;2022-08-19T06:03:35;15.18;;;8.95;;
27794;SDS011;15176;50.844;4.412;2022-08-19T06:06:02;14.80;;;8.48;;
27794;SDS011;15176;50.844;4.412;2022-08-19T06:08:29;18.33;;;9.63;;
27794;SDS011;15176;50.844;4.412;2022-08-19T06:10:54;20.98;;;9.57;;
27794;SDS011;15176;50.844;4.412;2022-08-19T06:13:21;15.52;;;8.30;;
27794;SDS011;15176;50.844;4.412;2022-08-19T06:15:48;17.30;;;8.45;;
27794;SDS011;15176;50.844;4.412;2022-08-19T06:18:14;12.70;;;7.95;;
27794;SDS011;15176;50.844;4.412;2022-08-19T06:20:40;17.23;;;8.70;;
27794;SDS011;15176;50.844;4.412;2022-08-19T06:23:07;15.15;;;7.20;;
27794;SDS011;15176;50.844;4.412;2022-08-19T06:25:34;14.68;;;7.63;;
27794;SDS011;15176;50.844;4.412;2022-08-19T06:28:01;15.48;;;7.15;;
27794;SDS011;15176;50.844;4.412;2022-08-19T06:30:27;13.48;;;7.30;;
27794;SDS011;15176;50.844;4.412;2022-08-19T06:32:53;12.68;;;6.47;;
27794;SDS011;15176;50.844;4.412;2022-08-19T06:35:18;12.25;;;6.47;;
27794;SDS011;15176;50.844;4.412;2022-08-19T06:37:44;14.65;;;6.57;;
27794;SDS011;15176;50.844;4.412;2022-08-19T06:40:10;11.85;;;5.65;;
27794;SDS011;15176;50.844;4.412;2022-08-19T06:42:37;17.67;;;6.97;;
27794;SDS011;15176;50.844;4.412;2022-08-19T06:45:03;11.07;;;6.28;;
27794;SDS011;15176;50.844;4.412;2022-08-19T06:47:30;11.68;;;6.10;;
27794;SDS011;15176;50.844;4.412;2022-08-19T06:49:58;10.07;;;4.95;;
27794;SDS011;15176;50.844;4.412;2022-08-19T06:52:28;14.73;;;7.00;;
27794;SDS011;15176;50.844;4.412;2022-08-19T06:54:58;13.35;;;6.28;;
27794;SDS011;15176;50.844;4.412;2022-08-19T06:57:24;16.35;;;6.40;;
27794;SDS011;15176;50.844;4.412;2022-08-19T06:59:51;12.02;;;5.88;;
27794;SDS011;15176;50.844;4.412;2022-08-19T07:02:17;15.05;;;6.57;;
27794;SDS011;15176;50.844;4.412;2022-08-19T07:04:43;15.15;;;6.07;;
27794;SDS011;15176;50.844;4.412;2022-08-19T07:07:10;14.25;;;6.18;;
27794;SDS011;15176;50.844;4.412;2022-08-19T07:09:38;14.10;;;6.00;;
27794;SDS011;15176;50.844;4.412;2022-08-19T07:12:07;12.82;;;6.03;;
27794;SDS011;15176;50.844;4.412;2022-08-19T07:14:36;15.25;;;6.50;;
27794;SDS011;15176;50.844;4.412;2022-08-19T07:17:04;10.30;;;5.80;;
27794;SDS011;15176;50.844;4.412;2022-08-19T07:19:36;13.80;;;6.07;;
27794;SDS011;15176;50.844;4.412;2022-08-19T07:22:04;12.40;;;6.05;;
27794;SDS011;15176;50.844;4.412;2022-08-19T07:24:31;12.80;;;7.70;;
27794;SDS011;15176;50.844;4.412;2022-08-19T07:26:58;19.30;;;6.50;;
27794;SDS011;15176;50.844;4.412;2022-08-19T07:29:29;13.65;;;6.28;;
27794;SDS011;15176;50.844;4.412;2022-08-19T07:31:56;14.32;;;5.78;;
27794;SDS011;15176;50.844;4.412;2022-08-19T07:34:24;14.82;;;7.72;;
27794;SDS011;15176;50.844;4.412;2022-08-19T07:36:51;13.07;;;6.13;;
27794;SDS011;15176;50.844;4.412;2022-08-19T07:39:28;8.75;;;5.07;;
27794;SDS011;15176;50.844;4.412;2022-08-19T07:41:55;12.43;;;5.22;;
27794;SDS011;15176;50.844;4.412;2022-08-19T07:44:23;14.90;;;5.10;;
27794;SDS011;15176;50.844;4.412;2022-08-19T07:46:50;10.48;;;5.40;;
27794;SDS011;15176;50.844;4.412;2022-08-19T07:49:20;12.05;;;5.38;;
27794;SDS011;15176;50.844;4.412;2022-08-19T07:51:50;9.82;;;5.40;;
27794;SDS011;15176;50.844;4.412;2022-08-19T07:54:18;10.10;;;5.18;;
27794;SDS011;15176;50.844;4.412;2022-08-19T07:56:45;10.18;;;5.15;;
27794;SDS011;15176;50.844;4.412;2022-08-19T07:59:11;9.25;;;4.90;;
27794;SDS011;15176;50.844;4.412;2022-08-19T08:01:37;9.98;;;4.78;;
27794;SDS011;15176;50.844;4.412;2022-08-19T08:04:05;10.73;;;5.60;;
27794;SDS011;15176;50.844;4.412;2022-08-19T08:06:50;10.95;;;5.47;;
27794;SDS011;15176;50.844;4.412;2022-08-19T08:09:37;11.20;;;5.53;;
27794;SDS011;15176;50.844;4.412;2022-08-19T08:12:09;11.55;;;6.00;;
27794;SDS011;15176;50.844;4.412;2022-08-19T08:14:44;16.85;;;4.57;;
27794;SDS011;15176;50.844;4.412;2022-08-19T08:17:17;11.00;;;4.75;;
27794;SDS011;15176;50.844;4.412;2022-08-19T08:19:45;10.68;;;5.35;;
27794;SDS011;15176;50.844;4.412;2022-08-19T08:22:14;14.40;;;5.32;;
27794;SDS011;15176;50.844;4.412;2022-08-19T08:25:06;7.63;;;4.03;;
27794;SDS011;15176;50.844;4.412;2022-08-19T08:27:38;9.27;;;4.80;;
27794;SDS011;15176;50.844;4.412;2022-08-19T08:30:06;11.18;;;4.82;;
27794;SDS011;15176;50.844;4.412;2022-08-19T08:32:34;9.00;;;4.63;;
27794;SDS011;15176;50.844;4.412;2022-08-19T08:35:07;8.38;;;4.25;;
27794;SDS011;15176;50.844;4.412;2022-08-19T08:37:35;16.02;;;4.65;;
27794;SDS011;15176;50.844;4.412;2022-08-19T08:40:09;8.95;;;4.40;;
27794;SDS011;15176;50.844;4.412;2022-08-19T08:45:55;10.50;;;4.88;;
27794;SDS011;15176;50.844;4.412;2022-08-19T08:48:47;9.93;;;4.85;;
27794;SDS011;15176;50.844;4.412;2022-08-19T08:51:18;7.82;;;4.28;;
27794;SDS011;15176;50.844;4.412;2022-08-19T08:53:49;8.98;;;4.78;;
27794;SDS011;15176;50.844;4.412;2022-08-19T08:56:16;12.25;;;4.63;;
27794;SDS011;15176;50.844;4.412;2022-08-19T08:58:57;10.95;;;5.05;;
27794;SDS011;15176;50.844;4.412;2022-08-19T09:01:32;11.50;;;4.43;;
27794;SDS011;15176;50.844;4.412;2022-08-19T09:03:58;11.30;;;4.72;;
27794;SDS011;15176;50.844;4.412;2022-08-19T09:06:38;10.55;;;4.45;;
27794;SDS011;15176;50.844;4.412;2022-08-19T09:09:19;10.10;;;4.40;;
27794;SDS011;15176;50.844;4.412;2022-08-19T09:12:39;9.45;;;4.47;;
27794;SDS011;15176;50.844;4.412;2022-08-19T09:15:07;9.63;;;4.68;;
27794;SDS011;15176;50.844;4.412;2022-08-19T09:17:35;10.88;;;4.55;;
27794;SDS011;15176;50.844;4.412;2022-08-19T09:22:40;11.25;;;4.97;;
27794;SDS011;15176;50.844;4.412;2022-08-19T09:25:09;9.73;;;4.70;;
27794;SDS011;15176;50.844;4.412;2022-08-19T09:27:37;9.20;;;4.75;;
27794;SDS011;15176;50.844;4.412;2022-08-19T09:30:04;13.93;;;4.95;;
27794;SDS011;15176;50.844;4.412;2022-08-19T09:32:32;7.85;;;4.18;;
27794;SDS011;15176;50.844;4.412;2022-08-19T09:34:58;9.40;;;4.40;;
27794;SDS011;15176;50.844;4.412;2022-08-19T09:37:25;11.00;;;4.57;;
27794;SDS011;15176;50.844;4.412;2022-08-19T09:39:51;10.75;;;4.68;;
27794;SDS011;15176;50.844;4.412;2022-08-19T09:42:17;9.23;;;4.63;;
27794;SDS011;15176;50.844;4.412;2022-08-19T09:44:43;12.90;;;4.65;;
27794;SDS011;15176;50.844;4.412;2022-08-19T09:47:10;8.70;;;4.70;;
27794;SDS011;15176;50.844;4.412;2022-08-19T09:49:37;7.32;;;3.60;;
27794;SDS011;15176;50.844;4.412;2022-08-19T09:52:04;8.85;;;4.80;;
27794;SDS011;15176;50.844;4.412;2022-08-19T09:54:32;9.18;;;4.00;;
27794;SDS011;15176;50.844;4.412;2022-08-19T09:56:58;8.73;;;4.15;;
27794;SDS011;15176;50.844;4.412;2022-08-19T09:59:27;12.60;;;4.47;;
27794;SDS011;15176;50.844;4.412;2022-08-19T10:01:54;10.35;;;3.78;;
27794;SDS011;15176;50.844;4.412;2022-08-19T10:04:20;9.27;;;4.05;;
27794;SDS011;15176;50.844;4.412;2022-08-19T10:06:46;8.88;;;4.60;;
27794;SDS011;15176;50.844;4.412;2022-08-19T10:09:14;6.88;;;3.78;;
27794;SDS011;15176;50.844;4.412;2022-08-19T10:11:42;5.97;;;3.30;;
27794;SDS011;15176;50.844;4.412;2022-08-19T10:14:14;7.75;;;3.60;;
27794;SDS011;15176;50.844;4.412;2022-08-19T10:16:41;6.53;;;3.67;;
27794;SDS011;15176;50.844;4.412;2022-08-19T10:19:08;6.65;;;3.20;;
27794;SDS011;15176;50.844;4.412;2022-08-19T10:21:34;5.88;;;2.95;;
27794;SDS011;15176;50.844;4.412;2022-08-19T10:24:02;5.00;;;2.70;;
27794;SDS011;15176;50.844;4.412;2022-08-19T10:26:31;5.95;;;3.25;;
27794;SDS011;15176;50.844;4.412;2022-08-19T10:29:01;7.22;;;3.33;;
27794;SDS011;15176;50.844;4.412;2022-08-19T10:31:30;7.43;;;3.35;;
27794;SDS011;15176;50.844;4.412;2022-08-19T10:33:57;7.88;;;3.65;;
27794;SDS011;15176;50.844;4.412;2022-08-19T10:36:24;6.85;;;3.67;;
27794;SDS011;15176;50.844;4.412;2022-08-19T10:38:54;7.13;;;3.88;;
27794;SDS011;15176;50.844;4.412;2022-08-19T10:41:25;7.85;;;4.00;;
27794;SDS011;15176;50.844;4.412;2022-08-19T10:43:54;9.50;;;4.47;;
27794;SDS011;15176;50.844;4.412;2022-08-19T10:46:27;7.82;;;4.38;;
27794;SDS011;15176;50.844;4.412;2022-08-19T10:48:57;11.15;;;4.95;;
27794;SDS011;15176;50.844;4.412;2022-08-19T10:51:24;9.13;;;5.20;;
27794;SDS011;15176;50.844;4.412;2022-08-19T10:54:08;8.82;;;5.07;;
27794;SDS011;15176;50.844;4.412;2022-08-19T10:56:35;8.90;;;4.95;;
27794;SDS011;15176;50.844;4.412;2022-08-19T10:59:16;10.02;;;5.65;;
27794;SDS011;15176;50.844;4.412;2022-08-19T11:01:44;9.35;;;5.80;;
27794;SDS011;15176;50.844;4.412;2022-08-19T11:04:11;9.93;;;5.13;;
27794;SDS011;15176;50.844;4.412;2022-08-19T11:06:39;10.80;;;6.05;;
27794;SDS011;15176;50.844;4.412;2022-08-19T11:09:06;8.63;;;5.40;;
27794;SDS011;15176;50.844;4.412;2022-08-19T11:11:33;10.02;;;5.68;;
27794;SDS011;15176;50.844;4.412;2022-08-19T11:14:04;9.85;;;5.72;;
27794;SDS011;15176;50.844;4.412;2022-08-19T11:16:30;8.77;;;5.05;;
27794;SDS011;15176;50.844;4.412;2022-08-19T11:18:58;8.80;;;5.22;;
27794;SDS011;15176;50.844;4.412;2022-08-19T11:23:58;9.00;;;5.47;;
27794;SDS011;15176;50.844;4.412;2022-08-19T11:26:25;8.45;;;4.95;;
27794;SDS011;15176;50.844;4.412;2022-08-19T11:28:52;8.02;;;4.97;;
27794;SDS011;15176;50.844;4.412;2022-08-19T11:31:22;11.48;;;5.20;;
27794;SDS011;15176;50.844;4.412;2022-08-19T11:33:50;12.55;;;6.20;;
27794;SDS011;15176;50.844;4.412;2022-08-19T11:36:16;10.30;;;6.90;;
27794;SDS011;15176;50.844;4.412;2022-08-19T11:38:44;13.00;;;6.90;;
27794;SDS011;15176;50.844;4.412;2022-08-19T11:41:10;14.45;;;7.03;;
27794;SDS011;15176;50.844;4.412;2022-08-19T11:43:36;12.57;;;7.47;;
27794;SDS011;15176;50.844;4.412;2022-08-19T11:46:05;13.25;;;7.35;;
27794;SDS011;15176;50.844;4.412;2022-08-19T11:48:35;12.52;;;6.93;;
27794;SDS011;15176;50.844;4.412;2022-08-19T11:51:06;10.88;;;7.00;;
27794;SDS011;15176;50.844;4.412;2022-08-19T11:53:34;12.48;;;6.78;;
27794;SDS011;15176;50.844;4.412;2022-08-19T11:56:01;13.88;;;6.93;;
27794;SDS011;15176;50.844;4.412;2022-08-19T11:58:27;9.88;;;6.47;;
27794;SDS011;15176;50.844;4.412;2022-08-19T12:00:54;9.90;;;6.32;;
27794;SDS011;15176;50.844;4.412;2022-08-19T12:03:20;11.98;;;6.40;;
27794;SDS011;15176;50.844;4.412;2022-08-19T12:05:46;9.32;;;5.70;;
27794;SDS011;15176;50.844;4.412;2022-08-19T12:08:12;10.73;;;5.85;;
27794;SDS011;15176;50.844;4.412;2022-08-19T12:10:39;9.77;;;6.20;;
27794;SDS011;15176;50.844;4.412;2022-08-19T12:13:07;8.35;;;5.30;;
27794;SDS011;15176;50.844;4.412;2022-08-19T12:15:37;9.10;;;4.95;;
27794;SDS011;15176;50.844;4.412;2022-08-19T12:18:06;7.75;;;4.57;;
27794;SDS011;15176;50.844;4.412;2022-08-19T12:20:35;8.38;;;4.50;;
27794;SDS011;15176;50.844;4.412;2022-08-19T12:23:03;9.60;;;4.50;;
27794;SDS011;15176;50.844;4.412;2022-08-19T12:25:30;8.32;;;4.10;;
27794;SDS011;15176;50.844;4.412;2022-08-19T12:27:58;10.50;;;4.47;;
27794;SDS011;15176;50.844;4.412;2022-08-19T12:30:24;7.55;;;4.07;;
27794;SDS011;15176;50.844;4.412;2022-08-19T12:32:50;6.95;;;4.05;;
27794;SDS011;15176;50.844;4.412;2022-08-19T12:35:16;6.15;;;3.38;;
27794;SDS011;15176;50.844;4.412;2022-08-19T12:37:46;7.10;;;4.00;;
27794;SDS011;15176;50.844;4.412;2022-08-19T12:40:15;7.63;;;4.30;;
27794;SDS011;15176;50.844;4.412;2022-08-19T12:42:42;7.18;;;3.33;;
27794;SDS011;15176;50.844;4.412;2022-08-19T12:45:09;7.32;;;3.25;;
27794;SDS011;15176;50.844;4.412;2022-08-19T12:47:39;6.57;;;3.00;;
27794;SDS011;15176;50.844;4.412;2022-08-19T12:50:05;5.78;;;2.67;;
27794;SDS011;15176;50.844;4.412;2022-08-19T12:52:33;6.35;;;2.58;;
27794;SDS011;15176;50.844;4.412;2022-08-19T12:55:02;5.32;;;2.60;;
27794;SDS011;15176;50.844;4.412;2022-08-19T12:57:30;4.70;;;2.50;;
27794;SDS011;15176;50.844;4.412;2022-08-19T12:59:58;6.95;;;2.45;;
27794;SDS011;15176;50.844;4.412;2022-08-19T13:02:38;4.85;;;2.10;;
27794;SDS011;15176;50.844;4.412;2022-08-19T13:05:06;8.73;;;2.78;;
27794;SDS011;15176;50.844;4.412;2022-08-19T13:07:33;4.55;;;2.20;;
27794;SDS011;15176;50.844;4.412;2022-08-19T13:09:59;4.72;;;2.20;;
27794;SDS011;15176;50.844;4.412;2022-08-19T13:12:26;4.15;;;1.83;;
27794;SDS011;15176;50.844;4.412;2022-08-19T13:14:52;6.15;;;2.30;;
27794;SDS011;15176;50.844;4.412;2022-08-19T13:17:19;5.65;;;2.20;;
27794;SDS011;15176;50.844;4.412;2022-08-19T13:19:45;5.05;;;2.03;;
27794;SDS011;15176;50.844;4.412;2022-08-19T13:22:11;4.18;;;1.90;;
27794;SDS011;15176;50.844;4.412;2022-08-19T13:24:37;7.07;;;1.80;;
27794;SDS011;15176;50.844;4.412;2022-08-19T13:27:03;6.68;;;2.00;;
27794;SDS011;15176;50.844;4.412;2022-08-19T13:29:29;4.20;;;1.90;;
27794;SDS011;15176;50.844;4.412;2022-08-19T13:32:13;3.38;;;1.60;;
27794;SDS011;15176;50.844;4.412;2022-08-19T13:34:57;3.28;;;1.50;;
27794;SDS011;15176;50.844;4.412;2022-08-19T13:37:23;4.72;;;1.92;;
27794;SDS011;15176;50.844;4.412;2022-08-19T13:40:06;2.97;;;1.33;;
27794;SDS011;15176;50.844;4.412;2022-08-19T13:42:41;4.10;;;1.45;;
27794;SDS011;15176;50.844;4.412;2022-08-19T13:45:08;4.28;;;2.20;;
27794;SDS011;15176;50.844;4.412;2022-08-19T13:47:36;4.60;;;1.50;;
27794;SDS011;15176;50.844;4.412;2022-08-19T13:50:10;4.43;;;1.67;;
27794;SDS011;15176;50.844;4.412;2022-08-19T13:52:37;5.38;;;1.80;;
27794;SDS011;15176;50.844;4.412;2022-08-19T13:55:04;4.22;;;1.83;;
27794;SDS011;15176;50.844;4.412;2022-08-19T13:57:30;4.30;;;1.70;;
27794;SDS011;15176;50.844;4.412;2022-08-19T13:59:57;4.35;;;1.60;;
27794;SDS011;15176;50.844;4.412;2022-08-19T14:02:24;4.35;;;1.67;;
27794;SDS011;15176;50.844;4.412;2022-08-19T14:04:51;4.63;;;1.63;;
27794;SDS011;15176;50.844;4.412;2022-08-19T14:07:17;6.13;;;1.90;;
27794;SDS011;15176;50.844;4.412;2022-08-19T14:09:42;3.88;;;1.63;;
27794;SDS011;15176;50.844;4.412;2022-08-19T14:12:08;2.28;;;1.30;;
27794;SDS011;15176;50.844;4.412;2022-08-19T14:14:37;3.58;;;1.58;;
27794;SDS011;15176;50.844;4.412;2022-08-19T14:17:07;4.53;;;1.70;;
27794;SDS011;15176;50.844;4.412;2022-08-19T14:19:33;3.10;;;1.50;;
27794;SDS011;15176;50.844;4.412;2022-08-19T14:21:58;5.50;;;1.70;;
27794;SDS011;15176;50.844;4.412;2022-08-19T14:24:24;5.32;;;1.63;;
27794;SDS011;15176;50.844;4.412;2022-08-19T14:26:50;4.85;;;1.60;;
27794;SDS011;15176;50.844;4.412;2022-08-19T14:29:16;3.35;;;1.52;;
27794;SDS011;15176;50.844;4.412;2022-08-19T14:31:42;4.95;;;1.80;;
27794;SDS011;15176;50.844;4.412;2022-08-19T14:34:09;4.63;;;1.80;;
27794;SDS011;15176;50.844;4.412;2022-08-19T14:36:36;3.85;;;1.80;;
27794;SDS011;15176;50.844;4.412;2022-08-19T14:39:02;2.72;;;1.45;;
27794;SDS011;15176;50.844;4.412;2022-08-19T14:41:28;4.85;;;1.70;;
27794;SDS011;15176;50.844;4.412;2022-08-19T14:43:55;4.68;;;1.20;;
27794;SDS011;15176;50.844;4.412;2022-08-19T14:46:25;2.75;;;1.10;;
27794;SDS011;15176;50.844;4.412;2022-08-19T14:48:53;3.25;;;1.10;;
27794;SDS011;15176;50.844;4.412;2022-08-19T14:51:20;2.90;;;1.20;;
27794;SDS011;15176;50.844;4.412;2022-08-19T14:53:47;3.50;;;1.30;;